createdAt,value
2023-03-03T00:00:14.642Z,25.58
2023-03-03T00:04:14.575Z,25.54
2023-03-03T00:08:14.529Z,25.55
2023-03-03T00:12:14.503Z,25.54
2023-03-03T00:16:14.565Z,25.52
2023-03-03T00:20:14.516Z,25.55
2023-03-03T00:24:14.392Z,25.52
2023-03-03T00:28:14.356Z,25.49
2023-03-03T00:32:14.387Z,25.48
2023-03-03T00:36:14.310Z,25.46
2023-03-03T00:40:14.282Z,25.46
2023-03-03T00:44:14.278Z,25.44
2023-03-03T00:48:14.181Z,25.42
2023-03-03T00:52:14.128Z,25.41
2023-03-03T00:56:14.106Z,25.41
2023-03-03T01:00:14.049Z,25.41
2023-03-03T01:04:14.038Z,25.37
2023-03-03T01:08:14.026Z,25.37
2023-03-03T01:12:13.952Z,25.35
2023-03-03T01:16:13.935Z,25.37
2023-03-03T01:20:13.898Z,25.34
2023-03-03T01:24:13.820Z,25.34
2023-03-03T01:28:13.815Z,25.34
2023-03-03T01:32:13.763Z,25.31
2023-03-03T01:36:13.742Z,25.28
2023-03-03T01:40:13.729Z,25.30
2023-03-03T01:44:13.701Z,25.28
2023-03-03T01:48:13.728Z,25.27
2023-03-03T01:52:13.795Z,25.25
2023-03-03T01:56:13.910Z,25.24
2023-03-03T02:00:14.010Z,25.21
2023-03-03T02:04:14.147Z,25.22
2023-03-03T02:08:14.253Z,25.22
2023-03-03T02:12:14.365Z,25.20
2023-03-03T02:16:14.502Z,25.21
2023-03-03T02:20:14.571Z,25.15
2023-03-03T02:24:14.655Z,25.15
2023-03-03T02:28:14.723Z,25.15
2023-03-03T02:32:14.905Z,25.14
2023-03-03T02:36:14.998Z,25.11
2023-03-03T02:40:15.050Z,25.11
2023-03-03T02:44:15.196Z,25.13
2023-03-03T02:48:15.302Z,25.10
2023-03-03T02:52:15.396Z,25.13
2023-03-03T02:56:15.531Z,25.09
2023-03-03T03:00:15.661Z,25.09
2023-03-03T03:04:15.893Z,25.09
2023-03-03T03:08:15.911Z,25.10
2023-03-03T03:12:16.060Z,25.06
2023-03-03T03:16:16.278Z,25.04
2023-03-03T03:20:16.399Z,25.04
2023-03-03T03:24:16.533Z,25.04
2023-03-03T03:28:16.657Z,25.06
2023-03-03T03:32:16.819Z,25.03
2023-03-03T03:36:16.965Z,25.07
2023-03-03T03:40:17.156Z,25.04
2023-03-03T03:44:17.272Z,25.04
2023-03-03T03:48:17.455Z,25.03
2023-03-03T03:52:17.646Z,25.01
2023-03-03T03:56:17.776Z,25.03
2023-03-03T04:00:17.910Z,25.01
2023-03-03T04:04:17.944Z,24.98
2023-03-03T04:08:17.869Z,24.97
2023-03-03T04:12:17.804Z,25.00
2023-03-03T04:16:17.817Z,24.98
2023-03-03T04:20:17.790Z,25.00
2023-03-03T04:24:17.711Z,24.97
2023-03-03T04:28:17.695Z,24.97
2023-03-03T04:32:17.702Z,24.97
2023-03-03T04:36:17.600Z,24.97
2023-03-03T04:40:17.765Z,24.95
2023-03-03T04:44:17.912Z,24.97
2023-03-03T04:48:18.120Z,24.94
2023-03-03T04:52:18.259Z,24.94
2023-03-03T04:56:18.440Z,24.95
2023-03-03T05:00:18.618Z,24.91
2023-03-03T05:04:18.627Z,24.93
2023-03-03T05:08:18.630Z,24.91
2023-03-03T05:12:18.591Z,24.93
2023-03-03T05:16:18.563Z,24.94
2023-03-03T05:20:18.485Z,24.93
2023-03-03T05:24:18.387Z,24.93
2023-03-03T05:28:18.391Z,24.89
2023-03-03T05:32:18.486Z,24.89
2023-03-03T05:36:18.344Z,24.86
2023-03-03T05:40:18.281Z,24.84
2023-03-03T05:44:20.527Z,24.86
2023-03-03T05:48:18.422Z,24.87
2023-03-03T05:52:18.586Z,24.86
2023-03-03T05:56:18.792Z,24.86
2023-03-03T06:00:19.019Z,24.84
2023-03-03T06:04:19.152Z,24.83
2023-03-03T06:08:19.384Z,24.86
2023-03-03T06:12:19.614Z,24.81
2023-03-03T06:16:19.772Z,24.83
2023-03-03T06:20:19.711Z,24.84
2023-03-03T06:24:19.690Z,24.83
2023-03-03T06:28:19.661Z,24.83
2023-03-03T06:32:19.644Z,24.80
2023-03-03T06:36:19.532Z,24.39
2023-03-03T06:40:19.540Z,23.86
2023-03-03T06:44:19.583Z,23.52
2023-03-03T06:48:19.444Z,23.44
2023-03-03T06:52:19.404Z,23.60
2023-03-03T06:56:19.389Z,23.85
2023-03-03T07:00:19.311Z,24.16
2023-03-03T07:04:19.312Z,24.40
2023-03-03T07:08:19.247Z,24.63
2023-03-03T07:12:19.213Z,24.79
2023-03-03T07:16:19.334Z,24.91
2023-03-03T07:20:19.430Z,25.04
2023-03-03T07:24:19.492Z,25.24
2023-03-03T07:28:19.533Z,25.44
2023-03-03T07:32:19.537Z,25.57
2023-03-03T07:36:19.582Z,25.60
2023-03-03T07:40:19.657Z,25.20
2023-03-03T07:44:19.782Z,24.26
2023-03-03T07:48:19.981Z,24.01
2023-03-03T07:52:20.046Z,24.12
2023-03-03T07:56:20.039Z,24.33
2023-03-03T08:00:20.043Z,24.60
2023-03-03T08:04:20.019Z,24.81
2023-03-03T08:08:19.902Z,24.95
2023-03-03T08:12:19.864Z,25.10
2023-03-03T08:16:19.907Z,25.21
2023-03-03T08:20:19.811Z,25.34
2023-03-03T08:24:19.804Z,25.41
2023-03-03T08:28:19.725Z,25.45
2023-03-03T08:32:19.820Z,25.44
2023-03-03T08:36:19.621Z,24.77
2023-03-03T08:40:19.637Z,24.71
2023-03-03T08:44:19.558Z,24.87
2023-03-03T08:48:19.542Z,25.03
2023-03-03T08:52:19.521Z,25.21
2023-03-03T08:56:19.464Z,25.37
2023-03-03T09:00:19.425Z,25.48
2023-03-03T09:04:19.475Z,25.55
2023-03-03T09:08:19.382Z,25.65
2023-03-03T09:12:19.312Z,25.66
2023-03-03T09:16:19.360Z,25.72
2023-03-03T09:20:19.430Z,25.75
2023-03-03T09:24:19.631Z,25.91
2023-03-03T09:28:19.614Z,25.75
2023-03-03T09:32:19.187Z,25.44
2023-03-03T09:36:19.151Z,25.15
2023-03-03T09:40:19.031Z,24.98
2023-03-03T09:44:18.999Z,24.80
2023-03-03T09:48:18.951Z,24.67
2023-03-03T09:52:19.156Z,24.57
2023-03-03T09:56:18.908Z,24.47
2023-03-03T10:00:18.907Z,24.40
2023-03-03T10:04:18.980Z,24.35
2023-03-03T10:08:19.165Z,24.27
2023-03-03T10:12:18.922Z,24.27
2023-03-03T10:16:18.933Z,24.22
2023-03-03T10:20:18.952Z,24.20
2023-03-03T10:24:19.008Z,24.17
2023-03-03T10:28:19.050Z,24.13
2023-03-03T10:32:33.971Z,24.11
2023-03-03T10:36:19.288Z,24.08
2023-03-03T10:40:19.022Z,24.12
2023-03-03T10:44:19.018Z,24.26
2023-03-03T10:48:18.976Z,24.30
2023-03-03T10:52:18.960Z,24.27
2023-03-03T10:56:18.886Z,24.17
2023-03-03T11:00:18.911Z,24.12
2023-03-03T11:04:18.850Z,24.09
2023-03-03T11:08:18.752Z,24.05
2023-03-03T11:12:20.175Z,23.99
2023-03-03T11:16:18.757Z,23.99
2023-03-03T11:20:18.680Z,23.93
2023-03-03T11:24:18.589Z,23.93
2023-03-03T11:28:18.677Z,23.92
2023-03-03T11:32:18.620Z,23.91
2023-03-03T11:36:18.486Z,23.89
2023-03-03T11:40:18.526Z,23.88
2023-03-03T11:44:18.497Z,23.88
2023-03-03T11:48:18.441Z,23.85
2023-03-03T11:52:18.342Z,23.83
2023-03-03T11:56:18.288Z,24.02
2023-03-03T12:00:18.320Z,24.19
2023-03-03T12:04:18.267Z,24.33
2023-03-03T12:08:18.302Z,24.46
2023-03-03T12:12:18.226Z,24.50
2023-03-03T12:16:18.783Z,24.60
2023-03-03T12:20:18.187Z,24.66
2023-03-03T12:24:18.213Z,24.67
2023-03-03T12:28:18.193Z,24.74
2023-03-03T12:32:18.149Z,24.74
2023-03-03T12:36:18.197Z,24.73
2023-03-03T12:40:18.158Z,24.76
2023-03-03T12:44:18.098Z,24.81
2023-03-03T12:48:18.046Z,24.89
2023-03-03T12:52:18.001Z,24.95
2023-03-03T12:56:18.010Z,24.98
2023-03-03T13:00:17.916Z,25.01
2023-03-03T13:04:17.947Z,25.09
2023-03-03T13:08:17.911Z,25.15
2023-03-03T13:12:17.867Z,25.20
2023-03-03T13:16:17.997Z,25.22
2023-03-03T13:20:17.817Z,25.30
2023-03-03T13:24:17.738Z,25.32
2023-03-03T13:28:17.720Z,25.37
2023-03-03T13:32:17.729Z,25.40
2023-03-03T13:36:17.664Z,25.41
2023-03-03T13:40:17.577Z,25.46
2023-03-03T13:44:17.581Z,25.46
2023-03-03T13:48:17.535Z,25.49
2023-03-03T13:52:17.510Z,25.52
2023-03-03T13:56:17.436Z,25.54
2023-03-03T14:00:17.399Z,25.55
2023-03-03T14:04:17.461Z,25.57
2023-03-03T14:08:17.319Z,25.60
2023-03-03T14:12:17.350Z,25.58
2023-03-03T14:16:17.344Z,25.60
2023-03-03T14:20:17.224Z,25.61
2023-03-03T14:24:17.255Z,25.62
2023-03-03T14:28:17.138Z,25.61
2023-03-03T14:32:17.152Z,25.61
2023-03-03T14:36:17.130Z,25.62
2023-03-03T14:40:17.077Z,25.62
2023-03-03T14:44:17.079Z,25.61
2023-03-03T14:48:17.126Z,25.65
2023-03-03T14:52:17.072Z,25.66
2023-03-03T14:56:17.048Z,25.66
2023-03-03T15:00:17.118Z,25.71
2023-03-03T15:04:17.087Z,25.69
2023-03-03T15:08:17.138Z,25.72
2023-03-03T15:12:17.249Z,25.78
2023-03-03T15:16:17.461Z,25.79
2023-03-03T15:20:17.516Z,25.78
2023-03-03T15:24:17.608Z,25.81
2023-03-03T15:28:17.753Z,25.78
2023-03-03T15:32:17.875Z,25.78
2023-03-03T15:36:17.862Z,25.75
2023-03-03T15:40:18.003Z,25.76
2023-03-03T15:44:18.069Z,25.74
2023-03-03T15:48:18.156Z,25.75
2023-03-03T15:52:18.271Z,25.76
2023-03-03T15:56:18.351Z,25.74
2023-03-03T16:00:18.382Z,25.75
2023-03-03T16:04:18.411Z,25.76
2023-03-03T16:08:18.468Z,25.78
2023-03-03T16:12:18.605Z,25.74
2023-03-03T16:16:18.621Z,25.74
2023-03-03T16:20:18.659Z,25.72
2023-03-03T16:24:18.741Z,25.74
2023-03-03T16:28:18.876Z,25.72
2023-03-03T16:32:18.911Z,25.72
2023-03-03T16:36:18.938Z,25.68
2023-03-03T16:40:18.962Z,25.68
2023-03-03T16:44:18.915Z,25.68
2023-03-03T16:48:18.870Z,25.65
2023-03-03T16:52:18.880Z,25.64
2023-03-03T16:56:18.896Z,25.64
2023-03-03T17:00:18.936Z,25.64
2023-03-03T17:04:18.873Z,25.61
2023-03-03T17:08:18.842Z,25.62
2023-03-03T17:12:18.868Z,25.60
2023-03-03T17:16:18.859Z,25.60
2023-03-03T17:20:18.830Z,25.57
2023-03-03T17:24:18.750Z,25.58
2023-03-03T17:28:18.763Z,25.55
2023-03-03T17:32:18.835Z,25.54
2023-03-03T17:36:18.774Z,25.54
2023-03-03T17:40:18.810Z,25.52
2023-03-03T17:44:18.791Z,25.54
2023-03-03T17:48:19.805Z,25.54
2023-03-03T17:52:18.782Z,25.54
2023-03-03T17:56:18.759Z,25.51
2023-03-03T18:00:19.418Z,25.51
2023-03-03T18:04:18.959Z,25.49
2023-03-03T18:08:18.780Z,25.48
2023-03-03T18:12:18.815Z,25.48
2023-03-03T18:16:19.387Z,25.48
2023-03-03T18:20:18.808Z,25.45
2023-03-03T18:24:18.857Z,25.48
2023-03-03T18:28:18.826Z,25.44
2023-03-03T18:32:18.862Z,25.45
2023-03-03T18:36:18.879Z,25.44
2023-03-03T18:40:18.856Z,25.44
2023-03-03T18:44:18.878Z,25.45
2023-03-03T18:48:18.910Z,25.44
2023-03-03T18:52:18.936Z,25.41
2023-03-03T18:56:19.000Z,25.41
2023-03-03T19:00:19.007Z,25.42
2023-03-03T19:04:19.013Z,25.40
2023-03-03T19:08:19.041Z,25.38
2023-03-03T19:12:19.069Z,25.35
2023-03-03T19:16:19.107Z,25.37
2023-03-03T19:20:19.192Z,25.40
2023-03-03T19:24:19.199Z,25.37
2023-03-03T19:28:19.258Z,25.34
2023-03-03T19:32:19.355Z,25.35
2023-03-03T19:36:19.333Z,25.32
2023-03-03T19:40:19.363Z,25.34
2023-03-03T19:44:19.423Z,25.34
2023-03-03T19:48:19.457Z,25.32
2023-03-03T19:52:19.540Z,25.32
2023-03-03T19:56:19.631Z,25.28
2023-03-03T20:00:19.728Z,25.34
2023-03-03T20:04:19.796Z,25.31
2023-03-03T20:08:19.855Z,25.30
2023-03-03T20:12:19.907Z,25.30
2023-03-03T20:16:19.944Z,25.30
2023-03-03T20:20:19.963Z,25.27
2023-03-03T20:24:20.072Z,25.27
2023-03-03T20:28:20.118Z,25.24
2023-03-03T20:32:20.338Z,25.25
2023-03-03T20:36:20.340Z,25.22
2023-03-03T20:40:20.414Z,25.24
2023-03-03T20:44:20.499Z,25.24
2023-03-03T20:48:20.559Z,25.24
2023-03-03T20:52:20.676Z,25.22
2023-03-03T20:56:20.743Z,25.21
2023-03-03T21:00:20.801Z,25.21
2023-03-03T21:04:21.022Z,25.21
2023-03-03T21:08:21.020Z,25.22
2023-03-03T21:12:21.088Z,25.18
2023-03-03T21:16:21.228Z,25.18
2023-03-03T21:20:21.372Z,25.18
2023-03-03T21:24:21.379Z,25.18
2023-03-03T21:28:21.494Z,25.15
2023-03-03T21:32:21.707Z,25.13
2023-03-03T21:36:21.666Z,25.17
2023-03-03T21:40:21.820Z,25.14
2023-03-03T21:44:21.841Z,25.17
2023-03-03T21:48:21.889Z,25.13
2023-03-03T21:52:22.058Z,25.13
2023-03-03T21:56:22.070Z,25.11
2023-03-03T22:00:22.184Z,25.10
2023-03-03T22:04:22.316Z,25.13
2023-03-03T22:08:22.360Z,25.11
2023-03-03T22:12:22.474Z,25.09
2023-03-03T22:16:22.587Z,25.10
2023-03-03T22:20:22.681Z,25.07
2023-03-03T22:24:22.854Z,25.07
2023-03-03T22:28:22.907Z,25.07
2023-03-03T22:32:23.124Z,25.07
2023-03-03T22:36:23.161Z,25.07
2023-03-03T22:40:23.370Z,25.06
2023-03-03T22:44:23.433Z,25.06
2023-03-03T22:48:23.548Z,25.06
2023-03-03T22:52:23.664Z,25.04
2023-03-03T22:56:23.821Z,25.04
2023-03-03T23:00:23.949Z,25.03
2023-03-03T23:04:24.070Z,25.04
2023-03-03T23:08:24.145Z,25.03
2023-03-03T23:12:24.294Z,25.03
2023-03-03T23:16:24.546Z,25.03
2023-03-03T23:20:24.394Z,25.01
2023-03-03T23:24:24.376Z,25.00
2023-03-03T23:28:24.303Z,25.00
2023-03-03T23:32:24.322Z,24.98
2023-03-03T23:36:24.255Z,25.00
2023-03-03T23:40:24.206Z,25.00
2023-03-03T23:44:24.196Z,24.98
2023-03-03T23:48:24.144Z,25.00
2023-03-03T23:52:24.080Z,24.97
2023-03-03T23:56:24.084Z,24.94
